Time;durP1;ratioP1;P1;durP2;ratioP2;P2;SDS_P1;SDS_P2;PMS_P1;PMS_P2;Temp;Humidity;BMP_temperature;BMP_pressure;BME280_temperature;BME280_humidity;BME280_pressure;Samples;Min_cycle;Max_cycle;Signal;HPM_P1;HPM_P2
2024/01/23 00:00:37;;;;;;;15.55;3.33;;;;;;;3.56;93.42;98593.50;5065262;28;20526;-74
2024/01/23 00:03:02;;;;;;;19.85;4.38;;;;;;;3.57;93.55;98596.94;5065062;28;20032;-73
2024/01/23 00:05:28;;;;;;;22.00;4.35;;;;;;;3.57;94.01;98599.59;5062230;28;20040;-74
2024/01/23 00:07:53;;;;;;;10.35;3.90;;;;;;;3.60;93.42;98596.53;5069493;28;20043;-73
2024/01/23 00:10:21;;;;;;;12.73;4.22;;;;;;;3.55;94.11;98591.88;5066700;28;20033;-74
2024/01/23 00:12:46;;;;;;;23.75;4.25;;;;;;;3.53;94.23;98590.47;5070403;28;20039;-74
2024/01/23 00:15:12;;;;;;;20.25;4.40;;;;;;;3.50;93.89;98596.16;5066471;28;20032;-74
2024/01/23 00:17:37;;;;;;;12.93;4.18;;;;;;;3.53;93.45;98601.84;5060250;28;20038;-74
2024/01/23 00:20:04;;;;;;;19.40;5.05;;;;;;;3.50;94.50;98598.78;5063442;28;20383;-74
2024/01/23 00:22:30;;;;;;;24.40;3.55;;;;;;;3.45;94.19;98590.72;5073565;28;20035;-74
2024/01/23 00:24:55;;;;;;;17.23;4.78;;;;;;;3.48;94.39;98599.03;5078075;28;20370;-74
2024/01/23 00:27:20;;;;;;;15.38;4.43;;;;;;;3.51;93.79;98597.78;5067512;28;20391;-74
2024/01/23 00:29:46;;;;;;;16.15;3.60;;;;;;;3.57;94.48;98610.13;5063123;28;20032;-74
2024/01/23 00:32:11;;;;;;;29.10;5.00;;;;;;;3.56;94.25;98606.69;5063933;28;20104;-73
2024/01/23 00:34:36;;;;;;;15.55;4.10;;;;;;;3.53;93.45;98611.59;5060576;28;20056;-74
2024/01/23 00:37:03;;;;;;;16.35;4.07;;;;;;;3.56;94.07;98619.09;5063373;28;20423;-74
2024/01/23 00:39:28;;;;;;;10.60;3.42;;;;;;;3.52;94.18;98609.94;5066321;28;20020;-74
2024/01/23 00:41:54;;;;;;;15.95;2.72;;;;;;;3.54;93.29;98613.19;5076543;28;20401;-74
2024/01/23 00:44:19;;;;;;;12.23;3.85;;;;;;;3.54;93.39;98619.28;5070629;28;20401;-74
2024/01/23 00:46:45;;;;;;;11.00;3.65;;;;;;;3.54;93.80;98613.19;5066763;28;20378;-73
2024/01/23 00:49:11;;;;;;;15.30;3.33;;;;;;;3.59;93.43;98626.56;5062245;28;20048;-74
2024/01/23 00:51:36;;;;;;;7.63;2.33;;;;;;;3.58;93.28;98625.75;5061805;28;20031;-74
2024/01/23 00:54:02;;;;;;;12.23;2.67;;;;;;;3.55;94.45;98633.28;5067139;28;20040;-73
2024/01/23 00:56:28;;;;;;;7.22;2.40;;;;;;;3.52;93.61;98631.06;5057065;28;20487;-74
2024/01/23 00:58:53;;;;;;;11.73;4.15;;;;;;;3.49;93.52;98627.03;5062850;28;20020;-73
2024/01/23 01:01:18;;;;;;;11.52;2.63;;;;;;;3.45;93.74;98620.53;5060198;28;20033;-74
2024/01/23 01:03:44;;;;;;;10.65;3.30;;;;;;;3.50;94.00;98633.91;5063687;28;20029;-74
2024/01/23 01:06:09;;;;;;;12.55;3.20;;;;;;;3.49;93.91;98644.69;5071585;28;20111;-74
2024/01/23 01:08:35;;;;;;;10.43;3.35;;;;;;;3.52;93.93;98641.59;5039734;28;20079;-74
2024/01/23 01:11:00;;;;;;;15.85;3.70;;;;;;;3.49;93.87;98649.97;5061891;28;20044;-74
2024/01/23 01:13:25;;;;;;;15.45;4.82;;;;;;;3.42;93.72;98662.34;5062360;28;20477;-74
2024/01/23 01:15:51;;;;;;;10.55;3.20;;;;;;;3.41;93.56;98702.91;5059851;28;20111;-74
2024/01/23 01:18:16;;;;;;;23.23;4.38;;;;;;;3.48;93.86;98809.25;5066519;28;20041;-74
2024/01/23 01:20:43;;;;;;;15.23;3.03;;;;;;;3.18;93.53;98784.31;5072482;28;20035;-75
2024/01/23 01:23:09;;;;;;;7.68;2.78;;;;;;;3.21;94.72;98787.34;5064391;28;20025;-75
2024/01/23 01:25:34;;;;;;;6.40;1.75;;;;;;;3.23;94.58;98755.50;5071340;28;20034;-75
2024/01/23 01:27:59;;;;;;;14.63;2.10;;;;;;;3.11;94.34;98744.75;5065785;28;20044;-75
2024/01/23 01:30:28;;;;;;;9.30;3.00;;;;;;;3.10;94.56;98744.97;5042444;28;20468;-75
2024/01/23 01:32:54;;;;;;;6.65;1.50;;;;;;;3.02;94.90;98744.16;5057073;28;20489;-74
2024/01/23 01:35:19;;;;;;;12.68;2.13;;;;;;;3.16;94.73;98752.06;5062462;28;20453;-75
2024/01/23 01:37:45;;;;;;;7.18;2.10;;;;;;;3.16;94.63;98744.97;5061849;28;20112;-74
2024/01/23 01:40:11;;;;;;;7.22;1.88;;;;;;;3.21;93.90;98739.88;5067749;28;20032;-74
2024/01/23 01:42:37;;;;;;;3.97;1.48;;;;;;;3.28;93.90;98730.13;5064288;28;20055;-75
2024/01/23 01:45:03;;;;;;;6.63;1.83;;;;;;;3.29;93.71;98741.50;5060029;28;20029;-75
2024/01/23 01:47:29;;;;;;;5.97;1.65;;;;;;;3.24;93.92;98738.66;5053902;28;20442;-74
2024/01/23 01:49:54;;;;;;;8.45;2.00;;;;;;;3.30;93.83;98772.16;5065440;28;20043;-74
2024/01/23 01:52:20;;;;;;;6.95;2.33;;;;;;;3.29;93.57;98781.88;5062112;28;20527;-74
2024/01/23 01:54:46;;;;;;;7.05;1.42;;;;;;;3.35;93.21;98796.06;5066111;28;20064;-74
2024/01/23 01:57:13;;;;;;;9.43;2.13;;;;;;;3.23;93.65;98801.16;5066664;28;20039;-74
2024/01/23 01:59:38;;;;;;;7.38;1.80;;;;;;;3.13;94.25;98777.00;5058637;28;20067;-75
2024/01/23 02:02:07;;;;;;;9.30;2.20;;;;;;;2.97;94.03;98798.50;5055247;28;20025;-75
2024/01/23 02:04:32;;;;;;;4.10;1.50;;;;;;;3.07;93.95;98784.91;5075817;28;20036;-75
2024/01/23 02:06:57;;;;;;;4.13;2.28;;;;;;;2.97;94.29;98778.22;5068777;28;20024;-75
2024/01/23 02:09:23;;;;;;;9.52;2.47;;;;;;;2.94;94.49;98783.91;5062685;28;20039;-75
2024/01/23 02:11:59;;;;;;;8.30;2.00;;;;;;;3.03;93.89;98774.78;5057251;28;20037;-75
2024/01/23 02:14:25;;;;;;;6.35;1.77;;;;;;;3.09;94.00;98782.88;5061535;28;20108;-75
2024/01/23 02:16:51;;;;;;;3.05;2.15;;;;;;;3.13;93.31;98773.56;5062828;28;20497;-75
2024/01/23 02:19:16;;;;;;;9.48;1.98;;;;;;;3.03;93.59;98763.44;5058698;28;20033;-75
2024/01/23 02:21:42;;;;;;;8.77;2.13;;;;;;;3.07;93.82;98777.00;5055429;28;20061;-75
2024/01/23 02:24:07;;;;;;;5.90;2.75;;;;;;;3.09;93.66;98777.59;5059924;28;20033;-75
2024/01/23 02:26:33;;;;;;;9.55;2.92;;;;;;;3.03;93.15;98795.88;5058417;28;20382;-75
2024/01/23 02:28:58;;;;;;;7.30;2.63;;;;;;;3.00;93.78;98800.72;5061711;28;20084;-75
2024/01/23 02:31:24;;;;;;;7.20;2.60;;;;;;;3.16;93.84;98795.06;5063345;28;20024;-75
2024/01/23 02:33:49;;;;;;;11.00;2.00;;;;;;;3.07;93.86;98800.72;5049416;28;20057;-75
2024/01/23 02:36:15;;;;;;;4.82;2.80;;;;;;;3.10;94.16;98784.53;5074162;28;20834;-75
2024/01/23 02:38:40;;;;;;;7.43;2.20;;;;;;;3.04;93.51;98783.47;5065091;28;20028;-75
2024/01/23 02:41:06;;;;;;;9.77;3.47;;;;;;;3.08;94.22;98791.81;5055920;28;20502;-75
2024/01/23 02:43:32;;;;;;;8.65;2.72;;;;;;;3.08;93.93;98795.25;5057340;28;20500;-75
2024/01/23 02:45:57;;;;;;;15.82;3.30;;;;;;;3.10;93.85;98813.53;5056297;28;20074;-75
2024/01/23 02:48:22;;;;;;;7.10;2.20;;;;;;;3.14;94.14;98806.81;5062741;28;20106;-75
2024/01/23 02:50:48;;;;;;;6.57;2.33;;;;;;;3.18;94.48;98797.50;5058691;28;20033;-75
2024/01/23 02:53:13;;;;;;;8.05;2.40;;;;;;;3.08;94.26;98797.88;5063558;28;20021;-75
2024/01/23 02:55:38;;;;;;;7.80;2.65;;;;;;;3.09;93.98;98798.69;5065585;28;20032;-75
2024/01/23 02:58:04;;;;;;;10.13;2.40;;;;;;;3.07;94.06;98784.91;5059535;28;20056;-74
2024/01/23 03:00:29;;;;;;;8.68;2.25;;;;;;;3.09;94.35;98794.25;5064382;28;20035;-74
2024/01/23 03:02:54;;;;;;;10.35;2.20;;;;;;;3.02;94.63;98793.41;5065990;28;20021;-75
2024/01/23 03:05:20;;;;;;;2.88;1.70;;;;;;;3.04;94.02;98802.75;5073974;28;20051;-74
2024/01/23 03:07:45;;;;;;;9.63;2.95;;;;;;;3.08;94.25;98800.53;5073345;28;20374;-74
2024/01/23 03:10:12;;;;;;;8.70;2.40;;;;;;;3.00;94.70;98806.81;5071705;28;20561;-74
2024/01/23 03:12:37;;;;;;;10.65;3.25;;;;;;;3.01;94.13;98802.34;5063834;28;20111;-74
2024/01/23 03:15:03;;;;;;;8.45;2.72;;;;;;;2.96;94.27;98820.59;5062114;28;20112;-74
2024/01/23 03:17:29;;;;;;;6.85;2.72;;;;;;;2.99;94.44;98817.56;5066086;28;20486;-74
2024/01/23 03:19:54;;;;;;;7.28;2.40;;;;;;;3.01;93.83;98821.59;5061512;28;20387;-75
2024/01/23 03:22:19;;;;;;;15.38;3.40;;;;;;;2.93;94.37;98813.06;5065937;28;20041;-75
2024/01/23 03:24:45;;;;;;;12.65;2.38;;;;;;;2.98;94.64;98843.13;5065744;28;20045;-75
2024/01/23 03:27:10;;;;;;;8.00;2.58;;;;;;;2.97;94.04;98838.06;5067524;28;20048;-74
2024/01/23 03:29:40;;;;;;;7.93;3.67;;;;;;;2.99;94.83;98842.09;5068452;28;20058;-74
2024/01/23 03:32:06;;;;;;;12.52;2.92;;;;;;;3.06;94.22;98842.09;5067165;28;20397;-75
2024/01/23 03:34:32;;;;;;;10.43;4.22;;;;;;;3.08;94.12;98855.88;5063838;28;20111;-74
2024/01/23 03:37:00;;;;;;;14.00;4.20;;;;;;;3.04;94.05;98860.75;5069398;28;20473;-74
2024/01/23 03:39:26;;;;;;;11.30;4.10;;;;;;;3.06;93.98;98873.72;5067278;28;20430;-74
2024/01/23 03:41:51;;;;;;;5.32;3.25;;;;;;;2.99;93.89;98863.16;5059980;28;20074;-74
2024/01/23 03:44:17;;;;;;;12.20;3.47;;;;;;;2.99;94.09;98871.09;5066780;28;20036;-74
2024/01/23 03:46:42;;;;;;;13.63;4.07;;;;;;;3.04;94.25;98873.13;5061762;28;20388;-73
2024/01/23 03:49:07;;;;;;;11.73;3.17;;;;;;;3.06;94.07;98884.28;5070443;28;20124;-74
2024/01/23 03:51:33;;;;;;;16.15;4.18;;;;;;;3.12;93.54;98874.78;5063903;28;20109;-75
2024/01/23 03:53:58;;;;;;;9.13;3.58;;;;;;;3.03;93.58;98890.78;5073373;28;20115;-73
2024/01/23 03:56:23;;;;;;;17.15;4.50;;;;;;;3.03;94.32;98896.06;5061715;28;20032;-74
2024/01/23 03:58:48;;;;;;;13.13;3.42;;;;;;;2.96;94.00;98894.41;5060990;28;20037;-74
2024/01/23 04:01:14;;;;;;;17.40;4.63;;;;;;;2.96;93.53;98889.94;5070861;28;20032;-73
2024/01/23 04:03:39;;;;;;;9.73;3.90;;;;;;;3.02;93.45;98889.16;5069796;28;20035;-74
2024/01/23 04:06:05;;;;;;;10.60;4.18;;;;;;;3.10;93.56;98874.97;5073003;28;20041;-74
2024/01/23 04:08:30;;;;;;;13.98;3.15;;;;;;;3.00;93.68;98891.19;5050036;28;20032;-74
2024/01/23 04:10:57;;;;;;;14.30;4.22;;;;;;;2.94;93.31;98915.69;5065354;28;20112;-74
2024/01/23 04:13:22;;;;;;;16.58;4.28;;;;;;;2.94;93.66;98922.78;5061492;28;20064;-74
2024/01/23 04:15:48;;;;;;;21.90;4.72;;;;;;;2.97;94.01;98925.84;5058281;28;20181;-74
2024/01/23 04:18:13;;;;;;;12.50;4.10;;;;;;;3.09;93.99;98912.06;5063172;28;20481;-74
2024/01/23 04:20:40;;;;;;;20.20;4.90;;;;;;;3.12;93.17;98911.69;5060066;28;20134;-74
2024/01/23 04:23:05;;;;;;;17.38;6.55;;;;;;;3.17;93.71;98902.16;5067958;28;20029;-74
2024/01/23 04:25:31;;;;;;;9.38;4.32;;;;;;;3.13;93.50;98910.66;5064763;28;20051;-75
2024/01/23 04:27:57;;;;;;;15.60;4.50;;;;;;;3.13;93.36;98908.03;5062966;28;20064;-75
2024/01/23 04:30:26;;;;;;;13.40;4.35;;;;;;;3.11;93.32;98921.41;5061156;28;20032;-74
2024/01/23 04:32:51;;;;;;;16.48;5.18;;;;;;;3.11;93.69;98921.41;5064437;28;20039;-74
2024/01/23 04:35:16;;;;;;;21.35;5.78;;;;;;;3.08;93.31;98926.28;5072405;28;20115;-75
2024/01/23 04:37:42;;;;;;;18.15;5.00;;;;;;;3.10;93.19;98921.63;5059264;28;20374;-75
2024/01/23 04:40:09;;;;;;;14.38;5.50;;;;;;;2.98;93.62;98937.19;5067901;28;20381;-75
2024/01/23 04:42:35;;;;;;;18.98;4.68;;;;;;;2.90;94.13;98930.28;5061382;28;20033;-75
2024/01/23 04:45:01;;;;;;;10.70;3.58;;;;;;;2.94;94.35;98939.44;5055417;28;20043;-74
2024/01/23 04:47:26;;;;;;;20.00;6.28;;;;;;;2.83;93.67;98941.81;5060827;28;20035;-74
2024/01/23 04:49:53;;;;;;;10.45;4.05;;;;;;;2.92;94.15;98952.00;5065751;28;20115;-75
2024/01/23 04:52:18;;;;;;;13.52;5.65;;;;;;;2.95;94.08;98956.84;5060343;28;20024;-75
2024/01/23 04:54:43;;;;;;;20.67;6.55;;;;;;;2.89;93.45;98962.91;5058927;28;20370;-75
2024/01/23 04:57:09;;;;;;;21.23;6.18;;;;;;;2.98;93.62;98979.38;5061191;28;20032;-74
2024/01/23 04:59:34;;;;;;;16.77;5.43;;;;;;;2.98;93.58;98982.84;5062151;28;20546;-75
2024/01/23 05:02:00;;;;;;;12.95;6.38;;;;;;;2.94;93.67;99002.69;5065173;28;20069;-74
2024/01/23 05:04:25;;;;;;;9.85;4.57;;;;;;;2.93;93.68;98993.16;5066256;28;20028;-74
2024/01/23 05:06:51;;;;;;;20.60;6.63;;;;;;;2.88;93.87;99003.44;5068362;28;20501;-74
2024/01/23 05:09:16;;;;;;;19.88;5.65;;;;;;;2.93;93.34;99016.03;5068131;28;20059;-74
2024/01/23 05:11:41;;;;;;;17.58;6.35;;;;;;;3.00;93.26;99027.44;5067207;28;20025;-74
2024/01/23 05:14:07;;;;;;;21.38;5.55;;;;;;;3.01;93.37;99024.59;5070728;28;20668;-73
2024/01/23 05:16:44;;;;;;;12.80;4.53;;;;;;;2.97;93.20;99018.09;5059181;28;20059;-87
2024/01/23 05:19:10;;;;;;;31.67;7.20;;;;;;;3.00;93.33;99032.72;5024556;28;20036;-73
2024/01/23 05:21:35;;;;;;;18.67;5.25;;;;;;;3.01;93.29;99047.53;5043077;28;20024;-74
2024/01/23 05:24:02;;;;;;;10.07;4.35;;;;;;;3.00;92.99;99052.00;5063586;28;20036;-74
2024/01/23 05:26:59;;;;;;;15.13;6.07;;;;;;;2.98;93.02;99059.28;5058503;28;20124;-87
2024/01/23 05:29:24;;;;;;;21.60;6.47;;;;;;;3.07;92.59;99074.94;5059110;28;20047;-75
2024/01/23 05:31:49;;;;;;;15.10;5.22;;;;;;;3.02;92.71;99071.06;5061454;28;20482;-75
2024/01/23 05:34:15;;;;;;;17.58;6.55;;;;;;;3.04;92.79;99069.03;5063382;28;20501;-74
2024/01/23 05:36:40;;;;;;;13.43;4.07;;;;;;;3.09;92.51;99086.09;5053146;28;20043;-74
2024/01/23 05:39:05;;;;;;;11.55;4.75;;;;;;;3.08;92.79;99090.56;5067595;28;20128;-74
2024/01/23 05:41:31;;;;;;;10.60;4.40;;;;;;;3.06;92.22;99081.22;5059755;28;20060;-74
2024/01/23 05:43:57;;;;;;;13.27;4.38;;;;;;;3.11;92.17;99095.44;5060205;28;20036;-74
2024/01/23 05:46:22;;;;;;;19.08;5.13;;;;;;;3.07;92.11;99080.22;5042305;28;20419;-74
2024/01/23 05:48:48;;;;;;;9.52;4.53;;;;;;;3.09;92.57;99083.47;5059526;28;20077;-74
2024/01/23 05:51:13;;;;;;;21.58;4.80;;;;;;;3.12;91.77;99102.38;5059184;28;20036;-74
2024/01/23 05:53:38;;;;;;;16.63;4.15;;;;;;;3.13;91.92;99103.97;5065392;28;20040;-74
2024/01/23 05:56:04;;;;;;;19.20;5.07;;;;;;;3.12;92.15;99109.44;5069324;28;20127;-74
2024/01/23 05:58:29;;;;;;;21.38;3.80;;;;;;;3.17;91.90;99115.75;5090381;28;20107;-74
2024/01/23 06:00:55;;;;;;;23.92;5.40;;;;;;;3.16;92.13;99121.22;5083589;28;20033;-74
2024/01/23 06:03:20;;;;;;;24.27;5.13;;;;;;;3.14;92.15;99113.53;5066333;28;20193;-77
2024/01/23 06:05:45;;;;;;;20.20;5.85;;;;;;;3.12;92.39;99125.28;5063182;28;20029;-74
2024/01/23 06:08:13;;;;;;;13.05;4.13;;;;;;;3.14;91.92;99132.00;5069956;28;20029;-75
2024/01/23 06:10:39;;;;;;;21.08;4.30;;;;;;;3.10;92.45;99132.56;5067449;28;20024;-74
2024/01/23 06:13:04;;;;;;;16.08;6.28;;;;;;;3.14;91.90;99128.53;5062812;28;20411;-74
2024/01/23 06:15:31;;;;;;;20.92;5.53;;;;;;;3.17;91.75;99149.25;5074110;28;20118;-74
2024/01/23 06:17:56;;;;;;;17.67;4.60;;;;;;;3.12;92.30;99138.47;5064844;28;20367;-74
2024/01/23 06:20:22;;;;;;;24.20;4.57;;;;;;;3.16;92.16;99151.06;5064871;28;21816;-74
2024/01/23 06:22:47;;;;;;;25.77;5.97;;;;;;;3.14;91.82;99165.44;5070805;28;20020;-74
2024/01/23 06:25:16;;;;;;;23.13;5.38;;;;;;;3.12;92.14;99162.19;5080307;28;20047;-74
2024/01/23 06:27:43;;;;;;;22.67;6.53;;;;;;;3.12;91.63;99164.81;5076888;28;20481;-74
2024/01/23 06:30:13;;;;;;;26.88;5.45;;;;;;;3.18;91.67;99177.22;5071473;28;20032;-74
2024/01/23 06:32:39;;;;;;;25.00;5.00;;;;;;;3.22;91.65;99178.47;5067154;28;20028;-74
2024/01/23 06:35:05;;;;;;;12.60;4.22;;;;;;;3.15;91.43;99191.63;5063396;28;20102;-74
2024/01/23 06:37:30;;;;;;;17.77;4.22;;;;;;;3.22;91.07;99199.56;5066521;28;20031;-74
2024/01/23 06:39:56;;;;;;;23.17;5.57;;;;;;;3.17;91.47;99197.50;5066028;28;20036;-74
2024/01/23 06:42:21;;;;;;;19.63;4.78;;;;;;;3.04;91.12;99187.69;5072436;28;20056;-74
2024/01/23 06:44:46;;;;;;;19.45;4.60;;;;;;;3.14;90.93;99221.66;5061915;28;20056;-74
2024/01/23 06:47:12;;;;;;;19.25;4.65;;;;;;;3.17;90.77;99225.72;5066467;28;20041;-73
2024/01/23 06:49:37;;;;;;;19.58;4.50;;;;;;;3.19;90.47;99221.88;5069593;28;20028;-73
2024/01/23 06:52:03;;;;;;;15.23;4.60;;;;;;;3.16;90.43;99224.91;5073437;28;20036;-73
2024/01/23 06:54:29;;;;;;;12.98;3.47;;;;;;;3.18;90.70;99232.63;5060646;28;20037;-74
2024/01/23 06:56:54;;;;;;;26.02;5.30;;;;;;;3.21;90.78;99219.06;5065277;28;20038;-73
2024/01/23 06:59:20;;;;;;;11.23;3.63;;;;;;;3.16;90.56;99232.81;5059485;28;20029;-74
2024/01/23 07:01:45;;;;;;;12.15;3.13;;;;;;;3.18;89.80;99222.06;5063692;28;20400;-74
2024/01/23 07:04:11;;;;;;;24.10;6.22;;;;;;;3.16;90.55;99229.34;5069065;28;20162;-74
2024/01/23 07:06:36;;;;;;;17.45;4.32;;;;;;;3.16;90.64;99226.72;5068387;28;20021;-74
2024/01/23 07:09:03;;;;;;;19.45;4.63;;;;;;;3.19;90.54;99236.91;5071063;28;20036;-74
2024/01/23 07:11:28;;;;;;;26.75;4.90;;;;;;;3.19;90.46;99242.97;5071052;28;20032;-74
2024/01/23 07:13:53;;;;;;;21.63;4.40;;;;;;;3.18;89.78;99257.16;5070177;28;20025;-74
2024/01/23 07:16:19;;;;;;;18.70;4.60;;;;;;;3.18;89.99;99254.53;5071028;28;20510;-73
2024/01/23 07:18:44;;;;;;;28.88;5.88;;;;;;;3.20;90.25;99254.34;5070232;28;20033;-75
2024/01/23 07:21:10;;;;;;;19.65;5.32;;;;;;;3.17;90.36;99250.25;5060850;28;20070;-74
2024/01/23 07:23:36;;;;;;;20.50;4.78;;;;;;;3.30;90.12;99271.47;5067205;28;20035;-75
2024/01/23 07:26:01;;;;;;;21.98;4.75;;;;;;;3.33;89.52;99264.97;5060226;28;20048;-75
2024/01/23 07:28:27;;;;;;;17.90;5.22;;;;;;;3.28;89.47;99270.00;5065309;28;20417;-75
2024/01/23 07:30:52;;;;;;;18.27;4.85;;;;;;;3.27;89.97;99286.84;5061495;28;20032;-75
2024/01/23 07:33:17;;;;;;;16.33;3.30;;;;;;;3.22;89.58;99268.16;5057531;28;20041;-74
2024/01/23 07:35:43;;;;;;;18.40;5.35;;;;;;;3.30;88.96;99276.72;5060772;28;20037;-74
2024/01/23 07:38:10;;;;;;;11.88;4.07;;;;;;;3.28;90.17;99289.28;5052335;28;20056;-74
2024/01/23 07:40:39;;;;;;;12.70;5.57;;;;;;;3.31;89.29;99293.38;5056793;28;20071;-74
2024/01/23 07:43:04;;;;;;;17.92;6.03;;;;;;;3.36;89.50;99298.91;5070208;28;20029;-74
2024/01/23 07:45:29;;;;;;;26.45;7.15;;;;;;;3.34;89.62;99314.91;5054520;28;20086;-74
2024/01/23 07:47:55;;;;;;;31.65;6.70;;;;;;;3.30;89.32;99318.94;5048086;28;20658;-74
2024/01/23 07:50:21;;;;;;;24.45;5.78;;;;;;;3.31;90.08;99319.75;5051699;28;20643;-73
2024/01/23 07:52:46;;;;;;;23.95;6.30;;;;;;;3.34;89.21;99320.19;5061225;28;20064;-74
2024/01/23 07:55:11;;;;;;;25.70;5.47;;;;;;;3.37;89.08;99308.44;5065720;28;20037;-74
2024/01/23 07:57:37;;;;;;;25.13;5.05;;;;;;;3.34;88.93;99303.56;5065913;28;20168;-74
2024/01/23 08:00:03;;;;;;;20.05;5.88;;;;;;;3.37;89.35;99334.81;5054240;28;20628;-74
2024/01/23 08:02:28;;;;;;;9.30;3.78;;;;;;;3.37;89.57;99319.00;5051360;28;20033;-74
2024/01/23 08:04:54;;;;;;;23.35;6.32;;;;;;;3.41;89.20;99338.69;5051921;28;20068;-74
2024/01/23 08:07:19;;;;;;;15.45;5.13;;;;;;;3.43;89.05;99347.28;5051675;28;20108;-73
2024/01/23 08:09:44;;;;;;;29.95;7.53;;;;;;;3.42;89.10;99327.16;5040455;28;20132;-74
2024/01/23 08:12:10;;;;;;;19.77;5.93;;;;;;;3.47;88.45;99346.66;5063982;28;20496;-74
2024/01/23 08:14:35;;;;;;;18.15;5.55;;;;;;;3.49;89.14;99349.97;5063929;28;20489;-74
2024/01/23 08:17:01;;;;;;;15.60;4.78;;;;;;;3.52;89.06;99348.75;5071377;28;20043;-74
2024/01/23 08:19:26;;;;;;;15.77;4.75;;;;;;;3.49;88.98;99376.34;5071630;28;20035;-74
2024/01/23 08:21:52;;;;;;;23.77;6.80;;;;;;;3.54;89.33;99366.03;5071142;28;20492;-74
2024/01/23 08:24:17;;;;;;;23.88;7.47;;;;;;;3.54;88.61;99362.56;5070442;28;20071;-74
2024/01/23 08:26:43;;;;;;;21.75;7.10;;;;;;;3.54;88.73;99376.56;5063558;28;20116;-74
2024/01/23 08:29:08;;;;;;;28.95;8.27;;;;;;;3.55;88.52;99378.22;5066424;28;20539;-74
2024/01/23 08:31:34;;;;;;;39.67;10.32;;;;;;;3.55;88.48;99378.22;5062592;28;20435;-74
2024/01/23 08:34:00;;;;;;;29.48;7.68;;;;;;;3.62;88.66;99394.13;5060814;28;20139;-74
2024/01/23 08:36:26;;;;;;;21.08;6.68;;;;;;;3.59;88.36;99373.38;5064798;28;20048;-74
2024/01/23 08:38:51;;;;;;;25.48;7.30;;;;;;;3.67;88.75;99383.78;5074609;28;20060;-74
2024/01/23 08:41:16;;;;;;;24.38;7.80;;;;;;;3.64;88.61;99389.47;5072422;28;20028;-74
2024/01/23 08:43:42;;;;;;;20.63;6.88;;;;;;;3.66;88.28;99401.47;5082741;28;20054;-75
2024/01/23 08:46:07;;;;;;;25.13;6.63;;;;;;;3.67;88.66;99397.78;5069898;28;20086;-75
2024/01/23 08:48:32;;;;;;;20.48;7.22;;;;;;;3.72;88.59;99415.72;5053132;28;20032;-74
2024/01/23 08:50:58;;;;;;;30.67;7.88;;;;;;;3.77;87.80;99418.59;5051284;28;20056;-74
2024/01/23 08:53:23;;;;;;;26.15;6.25;;;;;;;3.78;87.76;99418.41;5069264;28;20036;-75
2024/01/23 08:55:49;;;;;;;22.70;7.63;;;;;;;3.75;87.99;99425.91;5069433;28;20028;-74
2024/01/23 08:58:18;;;;;;;28.65;8.35;;;;;;;3.83;87.88;99430.22;5053290;28;20116;-74
2024/01/23 09:00:44;;;;;;;28.13;7.90;;;;;;;3.83;88.36;99441.59;5068581;28;20073;-74
2024/01/23 09:03:10;;;;;;;32.92;6.72;;;;;;;3.87;88.33;99447.31;5068460;28;20032;-74
2024/01/23 09:05:35;;;;;;;26.02;8.00;;;;;;;3.85;88.91;99450.13;5058260;28;20028;-74
2024/01/23 09:08:01;;;;;;;21.17;7.53;;;;;;;3.92;88.05;99460.75;5059406;28;20072;-74
2024/01/23 09:10:27;;;;;;;28.17;8.10;;;;;;;3.94;88.65;99462.19;5059430;28;20028;-74
2024/01/23 09:12:53;;;;;;;32.38;8.45;;;;;;;3.98;87.89;99466.09;5065880;28;20033;-74
2024/01/23 09:15:18;;;;;;;17.67;9.52;;;;;;;4.01;88.50;99464.91;5054821;28;20035;-74
2024/01/23 09:17:43;;;;;;;20.65;7.97;;;;;;;4.06;87.24;99476.53;5058030;28;20455;-74
2024/01/23 09:20:10;;;;;;;30.02;9.07;;;;;;;4.06;88.23;99475.72;5059996;28;20477;-74
2024/01/23 09:22:35;;;;;;;34.55;9.70;;;;;;;4.05;87.68;99489.91;5062690;28;20107;-74
2024/01/23 09:25:03;;;;;;;28.15;8.40;;;;;;;4.02;87.49;99477.91;5062921;28;20124;-74
2024/01/23 09:27:29;;;;;;;36.75;10.05;;;;;;;4.09;87.09;99493.78;5058954;28;20448;-74
2024/01/23 09:29:54;;;;;;;27.92;8.52;;;;;;;4.14;87.56;99497.50;5063755;28;20087;-74
2024/01/23 09:32:19;;;;;;;27.10;8.10;;;;;;;4.13;87.45;99497.72;5067858;28;20032;-74
2024/01/23 09:34:47;;;;;;;21.83;7.80;;;;;;;4.14;86.56;99494.88;5050112;28;20688;-74
2024/01/23 09:37:13;;;;;;;27.58;8.30;;;;;;;4.15;86.71;99493.06;5059245;28;20389;-74
2024/01/23 09:39:38;;;;;;;25.13;7.68;;;;;;;4.18;86.51;99500.59;5054059;28;20366;-74
2024/01/23 09:42:04;;;;;;;26.45;8.65;;;;;;;4.22;86.72;99494.72;5057856;28;20094;-74
2024/01/23 09:44:30;;;;;;;34.53;8.60;;;;;;;4.29;86.31;99490.31;5058468;28;20024;-74
2024/01/23 09:46:57;;;;;;;15.30;7.65;;;;;;;4.21;86.48;99493.09;5059316;28;20424;-74
2024/01/23 09:49:24;;;;;;;23.42;8.90;;;;;;;4.25;86.52;99512.03;5054882;28;20051;-74
2024/01/23 09:51:51;;;;;;;26.67;6.82;;;;;;;4.23;86.04;99501.66;5063008;28;20039;-74
2024/01/23 09:54:17;;;;;;;20.40;7.45;;;;;;;4.33;86.71;99503.94;5064661;28;20036;-74
2024/01/23 09:56:43;;;;;;;21.55;5.95;;;;;;;4.30;86.38;99512.28;5057991;28;20035;-74
2024/01/23 09:59:09;;;;;;;23.60;7.07;;;;;;;4.39;85.41;99513.78;5055178;28;20017;-74
2024/01/23 10:01:35;;;;;;;38.60;8.35;;;;;;;4.34;85.99;99514.34;5065184;28;20069;-74
2024/01/23 10:04:04;;;;;;;26.63;6.55;;;;;;;4.39;85.73;99517.19;5063554;28;20029;-74
2024/01/23 10:06:30;;;;;;;23.88;7.57;;;;;;;4.44;85.75;99535.13;5061697;28;20037;-74
2024/01/23 10:08:55;;;;;;;23.90;6.28;;;;;;;4.41;85.77;99515.19;5070037;28;20040;-74
2024/01/23 10:11:21;;;;;;;24.60;7.55;;;;;;;4.46;85.85;99506.69;5069101;28;20033;-74
2024/01/23 10:13:46;;;;;;;22.52;6.60;;;;;;;4.47;86.08;99516.25;5061318;28;20107;-74
2024/01/23 10:16:16;;;;;;;28.10;8.23;;;;;;;4.46;85.52;99518.06;5067333;28;20485;-74
2024/01/23 10:18:41;;;;;;;30.58;9.45;;;;;;;4.51;86.05;99515.69;5059402;28;20563;-74
2024/01/23 10:21:06;;;;;;;19.23;6.25;;;;;;;4.57;85.60;99535.22;5052122;28;20077;-74
2024/01/23 10:23:35;;;;;;;26.35;7.22;;;;;;;4.60;86.13;99539.31;5059323;28;20025;-74
2024/01/23 10:26:00;;;;;;;33.22;8.07;;;;;;;4.62;84.80;99527.53;5061205;28;20024;-74
2024/01/23 10:28:25;;;;;;;23.63;10.02;;;;;;;4.67;84.77;99537.53;5063421;28;20504;-74
2024/01/23 10:30:51;;;;;;;23.17;7.95;;;;;;;4.69;85.33;99546.09;5063417;28;20029;-74
2024/01/23 10:33:17;;;;;;;23.92;7.75;;;;;;;4.63;85.44;99531.81;5062547;28;20068;-74
2024/01/23 10:35:43;;;;;;;21.80;8.38;;;;;;;4.75;85.66;99547.94;5057241;28;20542;-74
2024/01/23 10:38:14;;;;;;;21.30;7.32;;;;;;;4.81;84.68;99549.81;5050254;28;20665;-74
2024/01/23 10:40:39;;;;;;;22.15;7.13;;;;;;;4.81;84.91;99542.69;5064472;28;20021;-75
2024/01/23 10:43:06;;;;;;;27.52;7.28;;;;;;;4.86;85.03;99561.47;5049323;28;20489;-74
2024/01/23 10:45:32;;;;;;;26.80;8.23;;;;;;;4.90;84.37;99562.69;5062205;28;20032;-74
2024/01/23 10:47:59;;;;;;;31.05;10.18;;;;;;;4.90;84.26;99551.31;5059958;28;20044;-74
2024/01/23 10:50:25;;;;;;;20.48;8.13;;;;;;;4.92;84.58;99560.69;5063905;28;20034;-75
2024/01/23 10:52:51;;;;;;;30.58;9.52;;;;;;;4.95;83.78;99559.47;5075760;28;20017;-75
2024/01/23 10:55:18;;;;;;;29.95;8.32;;;;;;;5.03;83.25;99564.59;5061476;28;20036;-74
2024/01/23 10:57:52;;;;;;;25.70;7.28;;;;;;;4.95;83.54;99585.94;5053566;28;20075;-74
2024/01/23 11:00:18;;;;;;;23.85;7.25;;;;;;;4.97;83.83;99563.56;5065892;28;20061;-74
2024/01/23 11:02:59;;;;;;;21.17;7.47;;;;;;;4.99;84.10;99569.47;5063946;28;20105;-74
2024/01/23 11:05:36;;;;;;;18.58;7.28;;;;;;;5.02;83.34;99576.22;5046483;28;20576;-75
2024/01/23 11:08:26;;;;;;;29.88;8.00;;;;;;;5.03;83.21;99567.25;5067945;28;20527;-75
2024/01/23 11:11:02;;;;;;;15.27;6.18;;;;;;;5.06;83.15;99574.81;5070014;28;20119;-74
2024/01/23 11:13:44;;;;;;;29.80;8.13;;;;;;;5.03;83.42;99557.47;5070368;28;20507;-75
2024/01/23 11:16:09;;;;;;;14.68;6.05;;;;;;;5.02;83.01;99568.28;5067667;28;20037;-75
2024/01/23 11:18:35;;;;;;;30.27;7.25;;;;;;;5.03;82.60;99551.38;5070013;28;20031;-75
2024/01/23 11:21:04;;;;;;;26.48;7.75;;;;;;;5.05;81.85;99550.16;5063956;28;20064;-75
2024/01/23 11:23:34;;;;;;;14.23;6.53;;;;;;;5.16;82.34;99554.09;5069817;28;20028;-74
2024/01/23 11:26:04;;;;;;;24.75;6.20;;;;;;;5.13;81.62;99541.25;5060574;28;20051;-74
2024/01/23 11:28:33;;;;;;;22.55;7.18;;;;;;;5.14;81.98;99537.59;5067588;28;20035;-74